createdAt,value
2023-03-31T00:01:49.785Z,9.60
2023-03-31T00:04:16.787Z,9.60
2023-03-31T00:06:43.773Z,9.50
2023-03-31T00:09:17.032Z,9.50
2023-03-31T00:11:43.846Z,9.60
2023-03-31T00:14:11.032Z,9.60
2023-03-31T00:16:39.069Z,9.60
2023-03-31T00:19:06.214Z,9.60
2023-03-31T00:21:33.042Z,9.60
2023-03-31T00:24:05.710Z,9.60
2023-03-31T00:26:34.439Z,9.60
2023-03-31T00:29:01.694Z,9.70
2023-03-31T00:31:29.234Z,9.70
2023-03-31T00:33:56.574Z,9.70
2023-03-31T00:36:24.531Z,9.70
2023-03-31T00:38:51.444Z,9.70
2023-03-31T00:41:18.419Z,9.60
2023-03-31T00:44:22.065Z,9.60
2023-03-31T00:46:59.543Z,9.60
2023-03-31T00:49:39.317Z,9.60
2023-03-31T00:52:08.937Z,9.60
2023-03-31T00:54:36.776Z,9.60
2023-03-31T00:57:05.987Z,9.60
2023-03-31T00:59:40.716Z,9.60
2023-03-31T01:02:08.722Z,9.60
2023-03-31T01:04:42.748Z,9.60
2023-03-31T01:07:21.630Z,9.60
2023-03-31T01:09:49.577Z,9.60
2023-03-31T01:12:18.660Z,9.60
2023-03-31T01:14:45.579Z,9.60
2023-03-31T01:17:12.646Z,9.60
2023-03-31T01:20:11.493Z,9.60
2023-03-31T01:23:15.993Z,9.70
2023-03-31T01:26:01.480Z,9.60
2023-03-31T01:28:55.519Z,9.60
2023-03-31T01:31:41.258Z,9.60
2023-03-31T01:34:23.310Z,9.60
2023-03-31T01:37:21.096Z,9.60
2023-03-31T01:40:00.852Z,9.60
2023-03-31T01:42:39.400Z,9.60
2023-03-31T01:45:12.242Z,9.60
2023-03-31T01:47:51.693Z,9.60
2023-03-31T01:50:30.645Z,9.50
2023-03-31T01:53:05.778Z,9.50
2023-03-31T01:55:46.351Z,9.50
2023-03-31T01:58:27.192Z,9.50
2023-03-31T02:01:08.269Z,9.50
2023-03-31T02:03:40.870Z,9.50
2023-03-31T02:06:14.686Z,9.50
2023-03-31T02:08:47.622Z,9.40
2023-03-31T02:11:15.080Z,9.40
2023-03-31T02:13:45.788Z,9.40
2023-03-31T02:16:18.340Z,9.40
2023-03-31T02:18:46.824Z,9.40
2023-03-31T02:21:14.836Z,9.40
2023-03-31T02:23:42.630Z,9.40
2023-03-31T02:26:19.714Z,9.30
2023-03-31T02:28:46.781Z,9.30
2023-03-31T02:31:41.519Z,9.40
2023-03-31T02:34:08.498Z,9.30
2023-03-31T02:36:36.136Z,9.30
2023-03-31T02:39:08.642Z,9.30
2023-03-31T02:41:36.597Z,9.30
2023-03-31T02:44:03.477Z,9.30
2023-03-31T02:46:32.104Z,9.30
2023-03-31T02:49:02.056Z,9.30
2023-03-31T02:51:43.995Z,9.30
2023-03-31T02:54:28.960Z,9.30
2023-03-31T02:57:13.958Z,9.30
2023-03-31T02:59:49.558Z,9.30
2023-03-31T03:02:31.574Z,9.20
2023-03-31T03:05:49.890Z,9.20
2023-03-31T03:08:40.604Z,9.20
2023-03-31T03:11:21.133Z,9.20
2023-03-31T03:14:06.284Z,9.20
2023-03-31T03:16:41.685Z,9.20
2023-03-31T03:19:09.216Z,9.20
2023-03-31T03:21:36.122Z,9.20
2023-03-31T03:24:02.999Z,9.20
2023-03-31T03:26:29.867Z,9.20
2023-03-31T03:28:57.555Z,9.20
2023-03-31T03:31:24.645Z,9.20
2023-03-31T03:33:52.278Z,9.20
2023-03-31T03:36:20.079Z,9.20
2023-03-31T03:38:46.992Z,9.10
2023-03-31T03:41:13.885Z,9.20
2023-03-31T03:43:40.789Z,9.20
2023-03-31T03:46:07.878Z,9.20
2023-03-31T03:48:34.899Z,9.20
2023-03-31T03:51:02.371Z,9.10
2023-03-31T03:53:29.468Z,9.10
2023-03-31T03:55:56.337Z,9.10
2023-03-31T03:58:23.276Z,9.20
2023-03-31T04:00:50.161Z,9.10
2023-03-31T04:03:17.323Z,9.10
2023-03-31T04:05:44.402Z,9.10
2023-03-31T04:08:11.272Z,9.10
2023-03-31T04:10:38.135Z,9.10
2023-03-31T04:13:05.039Z,9.10
2023-03-31T04:15:31.905Z,9.10
2023-03-31T04:17:58.736Z,9.10
2023-03-31T04:20:25.878Z,9.10
2023-03-31T04:22:52.727Z,9.10
2023-03-31T04:25:19.674Z,9.10
2023-03-31T04:27:51.413Z,9.10
2023-03-31T04:30:18.361Z,9.00
2023-03-31T04:32:45.237Z,9.00
2023-03-31T04:35:12.100Z,9.00
2023-03-31T04:37:38.962Z,9.10
2023-03-31T04:40:06.540Z,9.10
2023-03-31T04:42:33.356Z,9.00
2023-03-31T04:45:00.179Z,9.00
2023-03-31T04:47:27.175Z,9.00
2023-03-31T04:49:54.077Z,9.10
2023-03-31T04:52:20.984Z,9.10
2023-03-31T04:54:47.868Z,9.00
2023-03-31T04:57:14.803Z,9.00
2023-03-31T04:59:41.777Z,9.00
2023-03-31T05:02:08.702Z,9.10
2023-03-31T05:04:35.578Z,9.00
2023-03-31T05:07:02.447Z,9.00
2023-03-31T05:09:29.384Z,9.00
2023-03-31T05:11:57.434Z,9.00
2023-03-31T05:14:24.333Z,9.00
2023-03-31T05:16:51.195Z,9.00
2023-03-31T05:19:18.100Z,9.00
2023-03-31T05:21:44.965Z,9.00
2023-03-31T05:24:11.832Z,8.90
2023-03-31T05:26:38.682Z,9.00
2023-03-31T05:29:05.571Z,9.00
2023-03-31T05:31:32.663Z,9.00
2023-03-31T05:33:59.532Z,9.00
2023-03-31T05:36:26.437Z,9.00
2023-03-31T05:38:53.336Z,9.00
2023-03-31T05:41:20.253Z,9.00
2023-03-31T05:43:48.177Z,9.10
2023-03-31T05:46:15.152Z,9.00
2023-03-31T05:48:42.067Z,9.10
2023-03-31T05:51:09.007Z,9.10
2023-03-31T05:53:36.197Z,9.20
2023-03-31T05:56:06.248Z,9.30
2023-03-31T05:58:35.514Z,9.30
2023-03-31T06:01:07.944Z,9.30
2023-03-31T06:03:36.919Z,9.30
2023-03-31T06:06:05.294Z,9.40
2023-03-31T06:08:32.708Z,9.40
2023-03-31T06:10:59.582Z,9.50
2023-03-31T06:13:26.915Z,9.50
2023-03-31T06:15:58.196Z,9.50
2023-03-31T06:18:25.446Z,9.40
2023-03-31T06:20:52.391Z,9.30
2023-03-31T06:23:19.266Z,9.40
2023-03-31T06:25:51.195Z,9.40
2023-03-31T06:28:19.129Z,9.40
2023-03-31T06:30:46.063Z,9.40
2023-03-31T06:33:13.154Z,9.50
2023-03-31T06:35:41.235Z,9.50
2023-03-31T06:38:08.167Z,9.50
2023-03-31T06:40:35.076Z,9.50
2023-03-31T06:43:01.995Z,9.50
2023-03-31T06:45:28.855Z,9.50
2023-03-31T06:47:55.786Z,9.60
2023-03-31T06:50:22.712Z,9.70
2023-03-31T06:52:49.613Z,9.70
2023-03-31T06:55:16.512Z,9.70
2023-03-31T06:57:43.420Z,9.80
2023-03-31T07:00:10.797Z,9.80
2023-03-31T07:02:37.880Z,9.80
2023-03-31T07:05:05.182Z,9.90
2023-03-31T07:07:33.034Z,9.90
2023-03-31T07:09:59.910Z,9.90
2023-03-31T07:12:26.784Z,10.00
2023-03-31T07:14:53.666Z,10.10
2023-03-31T07:17:20.675Z,10.20
2023-03-31T07:19:47.545Z,10.20
2023-03-31T07:22:15.177Z,10.20
2023-03-31T07:24:42.147Z,10.20
2023-03-31T07:27:09.053Z,10.10
2023-03-31T07:29:35.912Z,10.20
2023-03-31T07:32:02.817Z,10.10
2023-03-31T07:34:29.737Z,10.30
2023-03-31T07:36:56.969Z,10.30
2023-03-31T07:39:24.042Z,10.40
2023-03-31T07:41:50.914Z,10.40
2023-03-31T07:44:17.789Z,10.50
2023-03-31T07:46:44.785Z,10.40
2023-03-31T07:49:11.675Z,10.40
2023-03-31T07:51:38.553Z,10.40
2023-03-31T07:54:05.461Z,10.40
2023-03-31T07:56:32.328Z,10.50
2023-03-31T07:58:59.450Z,10.50
2023-03-31T08:01:26.821Z,10.60
2023-03-31T08:03:54.139Z,10.60
2023-03-31T08:06:23.623Z,10.70
2023-03-31T08:08:51.014Z,10.80
2023-03-31T08:11:18.345Z,10.70
2023-03-31T08:13:45.190Z,10.90
2023-03-31T08:16:12.090Z,11.00
2023-03-31T08:18:38.989Z,11.00
2023-03-31T08:21:06.151Z,11.40
2023-03-31T08:23:33.148Z,11.60
2023-03-31T08:26:17.882Z,12.00
2023-03-31T08:28:46.242Z,11.90
2023-03-31T08:31:13.119Z,11.90
2023-03-31T08:33:39.971Z,11.70
2023-03-31T08:36:09.309Z,11.70
2023-03-31T08:38:41.965Z,11.60
2023-03-31T08:41:36.257Z,11.50
2023-03-31T08:44:24.927Z,11.40
2023-03-31T08:46:55.280Z,11.50
2023-03-31T08:49:23.588Z,11.60
2023-03-31T08:52:04.801Z,11.70
2023-03-31T08:54:42.484Z,11.70
2023-03-31T08:57:18.373Z,11.80
2023-03-31T08:59:45.454Z,11.90
2023-03-31T09:02:41.879Z,12.10
2023-03-31T09:05:59.693Z,12.00
2023-03-31T09:08:47.940Z,11.80
2023-03-31T09:11:29.838Z,11.70
2023-03-31T09:14:02.822Z,11.60
2023-03-31T09:16:55.903Z,11.70
2023-03-31T09:19:49.082Z,11.70
2023-03-31T09:22:39.840Z,11.70
2023-03-31T09:25:40.213Z,11.70
2023-03-31T09:28:18.856Z,11.70
2023-03-31T09:30:48.439Z,11.60
2023-03-31T09:33:24.474Z,11.80
2023-03-31T09:35:52.238Z,11.80
2023-03-31T09:38:19.266Z,11.80
2023-03-31T09:40:46.257Z,11.90
2023-03-31T09:43:22.525Z,11.80
2023-03-31T09:46:05.338Z,11.90
2023-03-31T09:48:36.237Z,11.80
2023-03-31T09:51:07.197Z,11.80
2023-03-31T09:53:52.883Z,11.90
2023-03-31T09:56:47.468Z,11.80
2023-03-31T09:59:21.543Z,11.80
2023-03-31T10:01:52.809Z,11.80
2023-03-31T10:04:45.377Z,11.70
2023-03-31T10:07:13.611Z,11.50
2023-03-31T10:09:41.088Z,11.30
2023-03-31T10:12:19.424Z,11.40
2023-03-31T10:14:51.473Z,11.30
2023-03-31T10:17:20.935Z,11.10
2023-03-31T10:20:18.817Z,11.20
2023-03-31T10:22:46.133Z,11.20
2023-03-31T10:25:27.369Z,11.00
2023-03-31T10:27:56.808Z,11.10
2023-03-31T10:30:28.650Z,11.10
2023-03-31T10:32:55.682Z,11.00
2023-03-31T10:35:36.224Z,10.90
2023-03-31T10:38:14.872Z,10.90
2023-03-31T10:40:51.000Z,10.90
2023-03-31T10:43:20.749Z,10.90
2023-03-31T10:45:49.123Z,10.80
2023-03-31T10:48:20.522Z,10.90
2023-03-31T10:50:48.818Z,10.90
2023-03-31T10:53:17.248Z,11.10
2023-03-31T10:55:58.326Z,11.00
2023-03-31T10:58:39.793Z,11.10
2023-03-31T11:01:44.202Z,11.00
2023-03-31T11:07:19.877Z,11.30
2023-03-31T11:10:08.644Z,11.40
2023-03-31T11:12:48.915Z,11.50
2023-03-31T11:15:27.643Z,11.50
2023-03-31T11:18:06.475Z,11.30
2023-03-31T11:21:05.899Z,11.30
2023-03-31T11:24:08.502Z,11.40
2023-03-31T11:26:54.752Z,11.40
2023-03-31T11:29:43.183Z,11.40
2023-03-31T11:32:25.313Z,11.60
2023-03-31T11:35:16.477Z,11.70
2023-03-31T11:38:04.342Z,11.60
2023-03-31T11:40:45.190Z,11.70
2023-03-31T11:43:30.447Z,11.70
2023-03-31T11:46:32.858Z,11.70
2023-03-31T11:49:04.296Z,11.80
2023-03-31T11:51:55.853Z,11.80
2023-03-31T11:54:39.048Z,12.00
2023-03-31T11:57:15.614Z,12.10
2023-03-31T11:59:44.038Z,12.20
2023-03-31T12:02:39.254Z,11.90
2023-03-31T12:05:09.257Z,11.90
2023-03-31T12:07:44.196Z,12.10
2023-03-31T12:10:24.845Z,12.30
2023-03-31T12:13:29.086Z,12.10
2023-03-31T12:16:19.672Z,11.90
2023-03-31T12:19:20.472Z,12.00
2023-03-31T12:22:17.848Z,12.10
2023-03-31T12:24:44.982Z,11.70
2023-03-31T12:27:17.948Z,12.10
2023-03-31T12:29:51.229Z,12.20
2023-03-31T12:32:22.914Z,12.40
2023-03-31T12:35:06.491Z,12.30
2023-03-31T12:38:04.557Z,12.20
2023-03-31T12:40:46.264Z,11.80
2023-03-31T12:43:48.908Z,12.10
2023-03-31T12:46:30.641Z,12.10
2023-03-31T12:49:12.382Z,12.10
2023-03-31T12:52:18.336Z,12.30
2023-03-31T12:55:16.293Z,12.20
2023-03-31T12:57:43.198Z,12.30
2023-03-31T13:00:16.108Z,12.00
2023-03-31T13:02:44.143Z,11.90
2023-03-31T13:05:39.113Z,12.00
2023-03-31T13:10:58.706Z,12.10
2023-03-31T13:13:26.513Z,12.10
2023-03-31T13:15:56.086Z,12.00
2023-03-31T13:18:23.881Z,11.60
2023-03-31T13:21:06.835Z,11.60
2023-03-31T13:23:43.742Z,11.70
2023-03-31T13:26:33.419Z,11.60
2023-03-31T13:29:22.509Z,11.60
2023-03-31T13:32:01.457Z,11.50
2023-03-31T13:34:38.888Z,11.60
2023-03-31T13:37:30.418Z,11.50
2023-03-31T13:40:21.139Z,11.40
2023-03-31T13:43:08.237Z,11.40
2023-03-31T13:45:56.652Z,11.40
2023-03-31T13:48:35.525Z,11.30
2023-03-31T13:51:11.280Z,11.10
2023-03-31T13:53:56.713Z,10.90
2023-03-31T13:56:41.515Z,10.90
2023-03-31T13:59:30.202Z,11.00
2023-03-31T14:02:22.799Z,11.00
2023-03-31T14:05:23.867Z,11.10
2023-03-31T14:08:02.173Z,11.10
2023-03-31T14:10:31.536Z,11.20
2023-03-31T14:13:11.814Z,11.30
2023-03-31T14:16:05.786Z,11.30
2023-03-31T14:18:40.355Z,11.40
2023-03-31T14:21:24.751Z,11.50
2023-03-31T14:24:13.148Z,11.70
2023-03-31T14:26:55.004Z,11.60
2023-03-31T14:29:47.852Z,11.60
2023-03-31T14:32:28.867Z,11.50
2023-03-31T14:35:13.665Z,11.40
2023-03-31T14:37:40.934Z,11.60
2023-03-31T14:40:14.674Z,11.80
2023-03-31T14:42:42.599Z,11.90
2023-03-31T14:45:31.714Z,12.40
2023-03-31T14:48:04.415Z,12.70
2023-03-31T14:50:35.748Z,12.70
2023-03-31T14:53:02.900Z,12.50
2023-03-31T14:55:54.250Z,12.40
2023-03-31T14:58:27.774Z,12.30
2023-03-31T15:00:54.871Z,12.10
2023-03-31T15:03:22.008Z,11.90
2023-03-31T15:05:50.277Z,11.80
2023-03-31T15:08:21.792Z,11.80
2023-03-31T15:10:56.228Z,11.60
2023-03-31T15:13:46.669Z,11.50
2023-03-31T15:16:36.273Z,11.40
2023-03-31T15:19:12.075Z,11.40
2023-03-31T15:21:39.228Z,11.50
2023-03-31T15:24:06.684Z,11.40
2023-03-31T15:26:41.851Z,11.60
2023-03-31T15:29:15.130Z,11.70
2023-03-31T15:31:42.201Z,11.60
2023-03-31T15:34:21.261Z,11.60
2023-03-31T15:36:48.488Z,11.60
2023-03-31T15:39:15.563Z,11.70
2023-03-31T15:41:43.042Z,11.60
2023-03-31T15:44:45.281Z,11.60
2023-03-31T15:47:21.743Z,11.50
2023-03-31T15:49:58.174Z,11.50
2023-03-31T15:52:29.657Z,11.40
2023-03-31T15:54:57.451Z,11.30
2023-03-31T15:57:33.030Z,11.30
2023-03-31T16:00:00.300Z,11.20
2023-03-31T16:02:44.183Z,11.20
2023-03-31T16:05:54.317Z,11.20
2023-03-31T16:08:43.838Z,11.20
2023-03-31T16:11:25.611Z,11.10
2023-03-31T16:13:56.978Z,11.10
2023-03-31T16:16:27.140Z,11.00
2023-03-31T16:19:09.249Z,11.00
2023-03-31T16:21:43.531Z,11.00
2023-03-31T16:24:11.075Z,11.10
2023-03-31T16:26:38.334Z,11.10
2023-03-31T16:29:05.595Z,11.20
2023-03-31T16:31:38.141Z,11.20
2023-03-31T16:34:10.424Z,11.20
2023-03-31T16:36:38.025Z,11.20
2023-03-31T16:39:06.180Z,11.30
2023-03-31T16:41:34.344Z,11.30
2023-03-31T16:44:03.925Z,11.30
2023-03-31T16:46:30.919Z,11.30
2023-03-31T16:48:57.925Z,11.40
2023-03-31T16:51:24.818Z,11.30
2023-03-31T16:53:51.707Z,11.30
2023-03-31T16:56:19.191Z,11.20
2023-03-31T16:58:46.144Z,11.20
2023-03-31T17:01:13.042Z,11.20
2023-03-31T17:03:40.204Z,11.10
2023-03-31T17:06:11.342Z,11.10
2023-03-31T17:08:38.589Z,11.10
2023-03-31T17:11:11.390Z,11.10
2023-03-31T17:13:39.594Z,11.20
2023-03-31T17:16:18.672Z,11.20
2023-03-31T17:18:49.195Z,11.30
2023-03-31T17:21:17.602Z,11.20
2023-03-31T17:23:44.785Z,11.20
2023-03-31T17:26:12.983Z,11.10
2023-03-31T17:28:40.639Z,11.10
2023-03-31T17:31:15.689Z,11.00
2023-03-31T17:33:43.263Z,11.00
2023-03-31T17:36:10.958Z,10.80
2023-03-31T17:38:37.846Z,10.80
2023-03-31T17:41:09.414Z,10.70
2023-03-31T17:43:36.864Z,10.70
2023-03-31T17:46:05.266Z,10.70
2023-03-31T17:48:32.671Z,10.50
2023-03-31T17:51:07.173Z,10.50
2023-03-31T17:53:34.955Z,10.50
2023-03-31T17:56:03.033Z,10.40
2023-03-31T17:58:30.694Z,10.40
2023-03-31T18:00:57.648Z,10.40
2023-03-31T18:03:24.852Z,10.30
2023-03-31T18:05:51.704Z,10.20
2023-03-31T18:08:18.578Z,10.20
2023-03-31T18:10:45.507Z,10.20
2023-03-31T18:13:12.331Z,10.10
2023-03-31T18:15:39.595Z,10.10
2023-03-31T18:18:06.588Z,10.10
2023-03-31T18:20:33.685Z,10.00
2023-03-31T18:23:00.729Z,10.00
2023-03-31T18:25:27.617Z,9.90
2023-03-31T18:27:54.544Z,9.90
2023-03-31T18:30:21.404Z,9.80
2023-03-31T18:32:48.374Z,9.80
2023-03-31T18:35:35.433Z,9.80
2023-03-31T18:38:02.309Z,9.70
2023-03-31T18:40:29.172Z,9.70
2023-03-31T18:42:56.226Z,9.60
2023-03-31T18:45:23.143Z,9.60
2023-03-31T18:47:50.081Z,9.60
2023-03-31T18:50:17.205Z,9.50
2023-03-31T18:52:44.101Z,9.50
2023-03-31T18:55:10.944Z,9.50
2023-03-31T18:57:37.827Z,9.40
2023-03-31T19:00:05.264Z,9.40
2023-03-31T19:02:32.420Z,9.30
2023-03-31T19:04:59.455Z,9.30
2023-03-31T19:07:26.301Z,9.30
2023-03-31T19:09:53.145Z,9.20
2023-03-31T19:12:20.056Z,9.20
2023-03-31T19:14:46.899Z,9.20
2023-03-31T19:17:13.740Z,9.10
2023-03-31T19:19:40.608Z,9.20
2023-03-31T19:22:07.490Z,9.20
2023-03-31T19:24:34.328Z,9.20
2023-03-31T19:27:01.206Z,9.10
2023-03-31T19:29:28.049Z,9.10
2023-03-31T19:31:54.986Z,9.10
2023-03-31T19:34:21.888Z,9.00
2023-03-31T19:36:48.732Z,9.00
2023-03-31T19:39:15.576Z,9.00
2023-03-31T19:41:42.427Z,9.00
2023-03-31T19:44:09.295Z,9.00
2023-03-31T19:46:36.247Z,9.00
2023-03-31T19:49:03.321Z,9.00
2023-03-31T19:51:30.334Z,9.00
2023-03-31T19:53:57.193Z,9.00
2023-03-31T19:56:24.305Z,8.90
2023-03-31T19:58:51.738Z,9.00
2023-03-31T20:01:21.227Z,9.00
2023-03-31T20:03:48.337Z,9.00
2023-03-31T20:06:15.345Z,9.00
2023-03-31T20:08:43.002Z,9.00
2023-03-31T20:11:13.232Z,9.00
2023-03-31T20:13:41.512Z,9.00
2023-03-31T20:16:14.509Z,9.00
2023-03-31T20:18:41.990Z,9.00
2023-03-31T20:21:11.502Z,9.10
2023-03-31T20:23:39.698Z,9.00
2023-03-31T20:26:08.584Z,9.10
2023-03-31T20:28:37.000Z,9.00
2023-03-31T20:31:11.475Z,9.00
2023-03-31T20:33:38.939Z,9.00
2023-03-31T20:36:08.851Z,9.00
2023-03-31T20:38:40.026Z,9.00
2023-03-31T20:41:08.351Z,9.00
2023-03-31T20:43:36.065Z,9.00
2023-03-31T20:46:04.716Z,9.00
2023-03-31T20:48:39.790Z,9.00
2023-03-31T20:51:08.608Z,8.90
2023-03-31T20:53:35.902Z,9.00
2023-03-31T20:56:02.826Z,9.00
2023-03-31T20:58:29.671Z,8.90
2023-03-31T21:00:58.111Z,9.00
2023-03-31T21:03:25.195Z,8.90
2023-03-31T21:05:52.089Z,8.90
2023-03-31T21:08:19.390Z,8.90
2023-03-31T21:10:47.184Z,8.90
2023-03-31T21:13:15.760Z,9.00
2023-03-31T21:15:47.971Z,8.90
2023-03-31T21:18:14.841Z,8.90
2023-03-31T21:20:41.724Z,8.90
2023-03-31T21:23:08.563Z,9.00
2023-03-31T21:25:35.400Z,8.90
2023-03-31T21:28:02.289Z,8.90
2023-03-31T21:30:29.153Z,9.00
2023-03-31T21:32:56.166Z,9.00
2023-03-31T21:35:23.071Z,9.00
2023-03-31T21:37:49.957Z,9.00
2023-03-31T21:40:16.901Z,9.00
2023-03-31T21:42:43.743Z,9.00
2023-03-31T21:45:11.050Z,9.00
2023-03-31T21:47:38.058Z,9.00
2023-03-31T21:50:05.241Z,9.00
2023-03-31T21:52:32.106Z,9.00
2023-03-31T21:54:58.950Z,9.00
2023-03-31T21:57:25.856Z,9.00
2023-03-31T21:59:52.746Z,9.00
2023-03-31T22:02:19.602Z,9.00
2023-03-31T22:04:46.547Z,9.00
2023-03-31T22:07:13.431Z,9.00
2023-03-31T22:09:40.294Z,9.00
2023-03-31T22:12:07.263Z,9.00
2023-03-31T22:14:37.481Z,9.00
2023-03-31T22:17:04.401Z,9.00
2023-03-31T22:19:31.267Z,9.00
2023-03-31T22:21:58.123Z,9.00
2023-03-31T22:24:24.991Z,9.00
2023-03-31T22:26:51.841Z,9.00
2023-03-31T22:29:18.681Z,9.00
2023-03-31T22:31:45.583Z,9.10
2023-03-31T22:34:12.510Z,9.00
2023-03-31T22:36:39.356Z,9.10
2023-03-31T22:39:06.226Z,9.10
2023-03-31T22:41:33.057Z,9.10
2023-03-31T22:43:59.883Z,9.10
2023-03-31T22:46:26.784Z,9.10
2023-03-31T22:48:53.658Z,9.10
2023-03-31T22:51:20.577Z,9.10
2023-03-31T22:53:54.608Z,9.10
2023-03-31T22:56:22.328Z,9.20
2023-03-31T22:58:53.053Z,9.20
2023-03-31T23:01:21.177Z,9.20
2023-03-31T23:03:48.285Z,9.20
2023-03-31T23:06:16.041Z,9.20
2023-03-31T23:08:43.718Z,9.20
2023-03-31T23:11:12.186Z,9.20
2023-03-31T23:13:39.430Z,9.20
2023-03-31T23:16:20.459Z,9.20
2023-03-31T23:18:47.872Z,9.20
2023-03-31T23:21:16.780Z,9.20
2023-03-31T23:23:43.727Z,9.20
2023-03-31T23:26:10.585Z,9.30
2023-03-31T23:28:37.996Z,9.30
2023-03-31T23:31:05.432Z,9.30
2023-03-31T23:33:32.621Z,9.30
2023-03-31T23:36:01.583Z,9.30
2023-03-31T23:38:30.059Z,9.30
2023-03-31T23:40:57.823Z,9.30
2023-03-31T23:43:25.235Z,9.30
2023-03-31T23:45:53.219Z,9.30
2023-03-31T23:48:20.411Z,9.30
2023-03-31T23:50:47.501Z,9.30
2023-03-31T23:53:14.365Z,9.20
2023-03-31T23:55:41.639Z,9.30
2023-03-31T23:58:08.526Z,9.30
